Map

Track Data

SID SEASON NUMBER BASIN SUBBASIN NAME ISO_TIME NATURE LAT LON WMO_WIND WMO_PRES WMO_AGENCY TRACK_TYPE DIST2LAND LANDFALL IFLAG USA_AGENCY USA_ATCF_ID USA_LAT USA_LON USA_RECORD USA_STATUS USA_WIND USA_PRES USA_SSHS USA_R34_NE USA_R34_SE USA_R34_SW USA_R34_NW USA_R50_NE USA_R50_SE USA_R50_SW USA_R50_NW USA_R64_NE USA_R64_SE USA_R64_SW USA_R64_NW USA_POCI USA_ROCI USA_RMW USA_EYE TOKYO_LAT TOKYO_LON TOKYO_GRADE TOKYO_WIND TOKYO_PRES TOKYO_R50_DIR TOKYO_R50_LONG TOKYO_R50_SHORT TOKYO_R30_DIR TOKYO_R30_LONG TOKYO_R30_SHORT TOKYO_LAND CMA_LAT CMA_LON CMA_CAT CMA_WIND CMA_PRES HKO_LAT HKO_LON HKO_CAT HKO_WIND HKO_PRES NEWDELHI_LAT NEWDELHI_LON NEWDELHI_GRADE NEWDELHI_WIND NEWDELHI_PRES NEWDELHI_CI NEWDELHI_DP NEWDELHI_POCI REUNION_LAT REUNION_LON REUNION_TYPE REUNION_WIND REUNION_PRES REUNION_TNUM REUNION_CI REUNION_RMW REUNION_R34_NE REUNION_R34_SE REUNION_R34_SW REUNION_R34_NW REUNION_R50_NE REUNION_R50_SE REUNION_R50_SW REUNION_R50_NW REUNION_R64_NE REUNION_R64_SE REUNION_R64_SW REUNION_R64_NW BOM_LAT BOM_LON BOM_TYPE BOM_WIND BOM_PRES BOM_TNUM BOM_CI BOM_RMW BOM_R34_NE BOM_R34_SE BOM_R34_SW BOM_R34_NW BOM_R50_NE BOM_R50_SE BOM_R50_SW BOM_R50_NW BOM_R64_NE BOM_R64_SE BOM_R64_SW BOM_R64_NW BOM_ROCI BOM_POCI BOM_EYE BOM_POS_METHOD BOM_PRES_METHOD NADI_LAT NADI_LON NADI_CAT NADI_WIND NADI_PRES WELLINGTON_LAT WELLINGTON_LON WELLINGTON_WIND WELLINGTON_PRES DS824_LAT DS824_LON DS824_STAGE DS824_WIND DS824_PRES TD9636_LAT TD9636_LON TD9636_STAGE TD9636_WIND TD9636_PRES TD9635_LAT TD9635_LON TD9635_WIND TD9635_PRES TD9635_ROCI NEUMANN_LAT NEUMANN_LON NEUMANN_CLASS NEUMANN_WIND NEUMANN_PRES MLC_LAT MLC_LON MLC_CLASS MLC_WIND MLC_PRES USA_GUST BOM_GUST BOM_GUST_PER REUNION_GUST REUNION_GUST_PER USA_SEAHGT USA_SEARAD_NE USA_SEARAD_SE USA_SEARAD_SW USA_SEARAD_NW STORM_SPEED STORM_DIR
1968267N08317 1968 95 NA NA NOT_NAMED 1968-09-23 00:00:00 TS 7.90000 -43.1000 25 hurdat_atl main 992 902 O_____________ hurdat_atl AL111968 7.90000 -43.1000 TD 25 -1 18 273
1968267N08317 1968 95 NA NA NOT_NAMED 1968-09-23 03:00:00 TS 7.95031 -44.0275 main 907 820 P_____________ AL111968 7.95031 -44.0275 TD 25 -1 19 273
1968267N08317 1968 95 NA NA NOT_NAMED 1968-09-23 06:00:00 TS 8.00000 -45.0000 25 hurdat_atl main 811 718 O_____________ hurdat_atl AL111968 8.00000 -45.0000 TD 25 -1 20 273
1968267N08317 1968 95 NA NA NOT_NAMED 1968-09-23 09:00:00 TS 8.04990 -46.0425 main 718 638 P_____________ AL111968 8.04990 -46.0425 TD 25 -1 21 273
1968267N08317 1968 95 NA NA NOT_NAMED 1968-09-23 12:00:00 TS 8.10000 -47.1000 25 hurdat_atl main 630 553 O_____________ hurdat_atl AL111968 8.10000 -47.1000 TD 25 -1 21 272
1968267N08317 1968 95 NA NA NOT_NAMED 1968-09-23 15:00:00 TS 8.10476 -48.1153 main 553 505 P_____________ AL111968 8.10476 -48.1153 TD 25 -1 20 273
1968267N08317 1968 95 NA NA NOT_NAMED 1968-09-23 18:00:00 TS 8.20000 -49.1000 25 hurdat_atl main 500 468 O_____________ hurdat_atl AL111968 8.20000 -49.1000 TD 25 -1 20 282
1968267N08317 1968 95 NA NA NOT_NAMED 1968-09-23 21:00:00 TS 8.51211 -50.0424 main 468 449 P_____________ AL111968 8.51211 -50.0424 TD 27 -1 20 290
1968267N08317 1968 95 NA NA NOT_NAMED 1968-09-24 00:00:00 TS 8.90000 -51.0000 30 hurdat_atl main 449 429 O_____________ hurdat_atl AL111968 8.90000 -51.0000 TD 30 -1 21 288
1968267N08317 1968 95 NA NA NOT_NAMED 1968-09-24 03:00:00 TS 9.13997 -52.0508 main 424 411 P_____________ AL111968 9.13997 -52.0508 TD 30 -1 22 286
1968267N08317 1968 95 NA NA NOT_NAMED 1968-09-24 06:00:00 TS 9.50000 -53.1000 30 hurdat_atl main 421 418 O_____________ hurdat_atl AL111968 9.50000 -53.1000 TD 30 -1 23 298
1968267N08317 1968 95 NA NA NOT_NAMED 1968-09-24 09:00:00 TS 10.2201 -54.1316 main 481 481 P_____________ AL111968 10.2201 -54.1316 TD 30 -1 24 309
1968267N08317 1968 95 NA NA NOT_NAMED 1968-09-24 12:00:00 TS 11.0000 -55.0000 30 hurdat_atl main 552 548 O_____________ hurdat_atl AL111968 11.0000 -55.0000 TD 30 -1 19 316
1968267N08317 1968 95 NA NA NOT_NAMED 1968-09-24 15:00:00 TS 11.5739 -55.4859 main 556 553 P_____________ AL111968 11.5739 -55.4859 TD 27 -1 14 316
1968267N08317 1968 95 NA NA NOT_NAMED 1968-09-24 18:00:00 TS 12.0000 -56.0000 25 hurdat_atl main 555 481 O_____________ hurdat_atl AL111968 12.0000 -56.0000 TD 25 -1 16 296
1968267N08317 1968 95 NA NA NOT_NAMED 1968-09-24 21:00:00 TS 12.2955 -56.9827 main 471 384 P_____________ AL111968 12.2955 -56.9827 TD 25 -1 21 284
1968267N08317 1968 95 NA NA NOT_NAMED 1968-09-25 00:00:00 TS 12.5000 -58.1000 25 hurdat_atl main 374 312 O_____________ hurdat_atl AL111968 12.5000 -58.1000 TD 25 -1 21 282
1968267N08317 1968 95 NA NA NOT_NAMED 1968-09-25 03:00:00 TS 12.7220 -59.0651 main 304 273 P_____________ AL111968 12.7220 -59.0651 TD 25 -1 19 282
1968267N08317 1968 95 NA CS NOT_NAMED 1968-09-25 06:00:00 TS 12.9000 -60.0000 25 hurdat_atl main 269 257 O_____________ hurdat_atl AL111968 12.9000 -60.0000 TD 25 -1 19 279
1968267N08317 1968 95 NA CS NOT_NAMED 1968-09-25 09:00:00 TS 13.0183 -60.9449 main 257 257 P_____________ AL111968 13.0183 -60.9449 TD 25 -1 19 276
1968267N08317 1968 95 NA CS NOT_NAMED 1968-09-25 12:00:00 TS 13.1000 -61.9000 25 hurdat_atl main 269 O_____________ hurdat_atl AL111968 13.1000 -61.9000 TD 25 -1 19 275

About IBTrACS Database

This database is a web-friendly format of International Best Track Archive for Climate Stewardship (IBTrACS), a global best track data archive curated by NOAA dating back to 1842.

Updated: 2021-12-01